sensor_id;sensor_type;location;lat;lon;timestamp;pressure;altitude;pressure_sealevel;temperature;humidity
10700;BME280;5401;41.986;21.452;2023-02-13T00:00:47;100314.09;;;3.89;62.14
10700;BME280;5401;41.986;21.452;2023-02-13T00:03:15;100315.63;;;3.91;61.75
10700;BME280;5401;41.986;21.452;2023-02-13T00:05:42;100321.66;;;3.93;61.53
10700;BME280;5401;41.986;21.452;2023-02-13T00:08:12;100331.91;;;3.98;61.82
10700;BME280;5401;41.986;21.452;2023-02-13T00:10:39;100316.13;;;3.96;61.64
10700;BME280;5401;41.986;21.452;2023-02-13T00:13:07;100322.72;;;4.02;61.64
10700;BME280;5401;41.986;21.452;2023-02-13T00:15:34;100315.88;;;3.99;61.76
10700;BME280;5401;41.986;21.452;2023-02-13T00:18:02;100330.66;;;4.02;61.99
10700;BME280;5401;41.986;21.452;2023-02-13T00:20:30;100338.03;;;3.98;61.55
10700;BME280;5401;41.986;21.452;2023-02-13T00:22:57;100334.66;;;3.96;61.85
10700;BME280;5401;41.986;21.452;2023-02-13T00:25:26;100342.13;;;4.02;61.70
10700;BME280;5401;41.986;21.452;2023-02-13T00:27:54;100335.00;;;4.03;61.86
10700;BME280;5401;41.986;21.452;2023-02-13T00:30:22;100335.00;;;4.03;62.16
10700;BME280;5401;41.986;21.452;2023-02-13T00:32:49;100339.94;;;4.07;61.65
10700;BME280;5401;41.986;21.452;2023-02-13T00:35:17;100347.06;;;4.07;62.63
10700;BME280;5401;41.986;21.452;2023-02-13T00:37:44;100349.09;;;4.03;62.09
10700;BME280;5401;41.986;21.452;2023-02-13T00:40:12;100334.19;;;3.91;62.77
10700;BME280;5401;41.986;21.452;2023-02-13T00:42:41;100344.78;;;4.02;62.43
10700;BME280;5401;41.986;21.452;2023-02-13T00:45:09;100339.72;;;3.99;62.89
10700;BME280;5401;41.986;21.452;2023-02-13T00:47:36;100343.56;;;4.06;62.36
10700;BME280;5401;41.986;21.452;2023-02-13T00:50:05;100344.03;;;4.11;61.92
10700;BME280;5401;41.986;21.452;2023-02-13T00:52:32;100348.81;;;4.17;62.20
10700;BME280;5401;41.986;21.452;2023-02-13T00:55:00;100357.22;;;4.22;62.11
10700;BME280;5401;41.986;21.452;2023-02-13T00:57:27;100357.00;;;4.25;62.39
10700;BME280;5401;41.986;21.452;2023-02-13T00:59:58;100339.56;;;4.12;62.38
10700;BME280;5401;41.986;21.452;2023-02-13T01:02:25;100354.59;;;4.22;62.54
10700;BME280;5401;41.986;21.452;2023-02-13T01:04:54;100355.44;;;4.23;62.56
10700;BME280;5401;41.986;21.452;2023-02-13T01:07:22;100345.78;;;4.22;62.70
10700;BME280;5401;41.986;21.452;2023-02-13T01:09:49;100350.47;;;4.29;62.23
10700;BME280;5401;41.986;21.452;2023-02-13T01:12:17;100340.72;;;4.29;62.05
10700;BME280;5401;41.986;21.452;2023-02-13T01:14:44;100349.38;;;4.31;61.78
10700;BME280;5401;41.986;21.452;2023-02-13T01:17:15;100344.91;;;4.32;62.35
10700;BME280;5401;41.986;21.452;2023-02-13T01:19:43;100343.69;;;4.36;62.50
10700;BME280;5401;41.986;21.452;2023-02-13T01:22:10;100345.41;;;4.37;61.99
10700;BME280;5401;41.986;21.452;2023-02-13T01:24:38;100333.81;;;4.38;61.73
10700;BME280;5401;41.986;21.452;2023-02-13T01:27:05;100339.00;;;4.39;61.82
10700;BME280;5401;41.986;21.452;2023-02-13T01:29:33;100334.78;;;4.37;61.95
10700;BME280;5401;41.986;21.452;2023-02-13T01:32:00;100334.31;;;4.32;62.11
10700;BME280;5401;41.986;21.452;2023-02-13T01:34:31;100338.78;;;4.31;62.34
10700;BME280;5401;41.986;21.452;2023-02-13T01:37:00;100333.34;;;4.33;62.55
10700;BME280;5401;41.986;21.452;2023-02-13T01:39:28;100341.53;;;4.30;62.28
10700;BME280;5401;41.986;21.452;2023-02-13T01:41:55;100348.53;;;4.31;62.36
10700;BME280;5401;41.986;21.452;2023-02-13T01:44:49;100344.47;;;4.27;62.69
10700;BME280;5401;41.986;21.452;2023-02-13T01:47:21;100316.81;;;4.09;62.79
10700;BME280;5401;41.986;21.452;2023-02-13T01:49:57;100341.69;;;4.28;62.68
10700;BME280;5401;41.986;21.452;2023-02-13T01:52:26;100346.50;;;4.34;62.53
10700;BME280;5401;41.986;21.452;2023-02-13T01:54:55;100348.75;;;4.39;62.48
10700;BME280;5401;41.986;21.452;2023-02-13T01:57:24;100346.84;;;4.41;63.00
10700;BME280;5401;41.986;21.452;2023-02-13T01:59:57;100350.91;;;4.45;62.17
10700;BME280;5401;41.986;21.452;2023-02-13T02:02:27;100364.03;;;4.46;62.65
10700;BME280;5401;41.986;21.452;2023-02-13T02:04:57;100365.72;;;4.47;62.94
10700;BME280;5401;41.986;21.452;2023-02-13T02:07:44;100368.25;;;4.49;62.40
10700;BME280;5401;41.986;21.452;2023-02-13T02:10:15;100364.63;;;4.50;62.50
10700;BME280;5401;41.986;21.452;2023-02-13T02:12:46;100367.03;;;4.53;62.49
10700;BME280;5401;41.986;21.452;2023-02-13T02:15:16;100371.47;;;4.52;62.51
10700;BME280;5401;41.986;21.452;2023-02-13T02:17:44;100361.13;;;4.49;63.04
10700;BME280;5401;41.986;21.452;2023-02-13T02:23:34;100375.13;;;4.51;63.21
10700;BME280;5401;41.986;21.452;2023-02-13T02:30:17;100374.78;;;4.45;63.23
10700;BME280;5401;41.986;21.452;2023-02-13T02:32:56;100376.56;;;4.44;62.90
10700;BME280;5401;41.986;21.452;2023-02-13T02:35:33;100375.84;;;4.42;63.18
10700;BME280;5401;41.986;21.452;2023-02-13T02:38:13;100375.16;;;4.40;62.47
10700;BME280;5401;41.986;21.452;2023-02-13T02:40:53;100378.44;;;4.33;62.27
10700;BME280;5401;41.986;21.452;2023-02-13T02:43:32;100389.25;;;4.30;62.82
10700;BME280;5401;41.986;21.452;2023-02-13T02:46:10;100386.38;;;4.22;62.60
10700;BME280;5401;41.986;21.452;2023-02-13T02:48:44;100387.25;;;4.23;63.17
10700;BME280;5401;41.986;21.452;2023-02-13T02:51:38;100389.66;;;4.25;63.28
10700;BME280;5401;41.986;21.452;2023-02-13T02:54:12;100390.47;;;4.26;63.44
10700;BME280;5401;41.986;21.452;2023-02-13T02:57:03;100331.69;;;3.90;63.01
10700;BME280;5401;41.986;21.452;2023-02-13T02:59:35;100400.38;;;4.24;63.15
10700;BME280;5401;41.986;21.452;2023-02-13T03:02:21;100397.00;;;4.22;62.90
10700;BME280;5401;41.986;21.452;2023-02-13T03:05:18;100390.84;;;4.22;63.33
10700;BME280;5401;41.986;21.452;2023-02-13T03:08:04;100384.59;;;4.23;63.34
10700;BME280;5401;41.986;21.452;2023-02-13T03:10:35;100396.88;;;4.24;62.63
10700;BME280;5401;41.986;21.452;2023-02-13T03:13:38;100399.53;;;4.24;63.30
10700;BME280;5401;41.986;21.452;2023-02-13T03:16:11;100370.78;;;4.08;63.29
10700;BME280;5401;41.986;21.452;2023-02-13T03:18:59;100395.81;;;4.15;63.25
10700;BME280;5401;41.986;21.452;2023-02-13T03:21:52;100395.84;;;4.04;63.03
10700;BME280;5401;41.986;21.452;2023-02-13T03:24:47;100402.84;;;3.94;63.61
10700;BME280;5401;41.986;21.452;2023-02-13T03:27:28;100399.34;;;3.94;62.89
10700;BME280;5401;41.986;21.452;2023-02-13T03:30:23;100405.88;;;3.90;62.78
10700;BME280;5401;41.986;21.452;2023-02-13T03:33:03;100395.59;;;3.86;63.56
10700;BME280;5401;41.986;21.452;2023-02-13T03:35:37;100401.16;;;3.83;62.92
10700;BME280;5401;41.986;21.452;2023-02-13T03:38:33;100403.81;;;3.83;63.30
10700;BME280;5401;41.986;21.452;2023-02-13T03:41:06;100416.69;;;3.76;63.88
10700;BME280;5401;41.986;21.452;2023-02-13T03:43:54;100413.06;;;3.77;63.12
10700;BME280;5401;41.986;21.452;2023-02-13T03:46:24;100415.00;;;3.75;64.10
10700;BME280;5401;41.986;21.452;2023-02-13T03:48:55;100416.44;;;3.79;63.99
10700;BME280;5401;41.986;21.452;2023-02-13T03:51:44;100417.78;;;3.85;64.13
10700;BME280;5401;41.986;21.452;2023-02-13T03:54:20;100421.88;;;3.89;63.73
10700;BME280;5401;41.986;21.452;2023-02-13T03:57:07;100417.19;;;3.92;64.07
10700;BME280;5401;41.986;21.452;2023-02-13T03:59:54;100417.31;;;3.90;64.18
10700;BME280;5401;41.986;21.452;2023-02-13T04:02:28;100403.34;;;3.78;63.76
10700;BME280;5401;41.986;21.452;2023-02-13T04:04:59;100430.44;;;3.92;63.95
10700;BME280;5401;41.986;21.452;2023-02-13T04:07:30;100419.94;;;3.90;63.38
10700;BME280;5401;41.986;21.452;2023-02-13T04:10:03;100418.25;;;3.89;64.26
10700;BME280;5401;41.986;21.452;2023-02-13T04:12:38;100428.63;;;3.92;63.49
10700;BME280;5401;41.986;21.452;2023-02-13T04:15:11;100422.47;;;3.92;63.68
10700;BME280;5401;41.986;21.452;2023-02-13T04:17:44;100409.13;;;3.83;64.09
10700;BME280;5401;41.986;21.452;2023-02-13T04:20:13;100422.13;;;3.96;63.48
10700;BME280;5401;41.986;21.452;2023-02-13T04:22:41;100415.75;;;3.88;63.98
10700;BME280;5401;41.986;21.452;2023-02-13T04:25:12;100408.38;;;3.59;63.41
10700;BME280;5401;41.986;21.452;2023-02-13T04:27:40;100425.09;;;3.38;63.80
10700;BME280;5401;41.986;21.452;2023-02-13T04:30:08;100400.72;;;3.00;63.60
10700;BME280;5401;41.986;21.452;2023-02-13T04:32:36;100427.88;;;2.91;64.39
10700;BME280;5401;41.986;21.452;2023-02-13T04:35:03;100428.50;;;2.72;64.05
10700;BME280;5401;41.986;21.452;2023-02-13T04:37:31;100428.91;;;2.55;64.81
10700;BME280;5401;41.986;21.452;2023-02-13T04:39:58;100425.16;;;2.47;64.36
10700;BME280;5401;41.986;21.452;2023-02-13T04:42:27;100422.38;;;2.48;64.58
10700;BME280;5401;41.986;21.452;2023-02-13T04:44:55;100429.25;;;2.50;65.18
10700;BME280;5401;41.986;21.452;2023-02-13T04:47:22;100432.50;;;2.54;64.87
10700;BME280;5401;41.986;21.452;2023-02-13T04:49:50;100438.53;;;2.56;65.67
10700;BME280;5401;41.986;21.452;2023-02-13T04:52:17;100437.44;;;2.58;65.10
10700;BME280;5401;41.986;21.452;2023-02-13T04:54:45;100436.59;;;2.58;65.70
10700;BME280;5401;41.986;21.452;2023-02-13T04:57:12;100438.63;;;2.54;66.11
10700;BME280;5401;41.986;21.452;2023-02-13T04:59:41;100436.59;;;2.58;65.86
10700;BME280;5401;41.986;21.452;2023-02-13T05:02:09;100445.16;;;2.61;66.24
10700;BME280;5401;41.986;21.452;2023-02-13T05:04:36;100438.91;;;2.62;65.91
10700;BME280;5401;41.986;21.452;2023-02-13T05:07:04;100444.19;;;2.62;66.63
10700;BME280;5401;41.986;21.452;2023-02-13T05:09:31;100447.28;;;2.56;66.57
10700;BME280;5401;41.986;21.452;2023-02-13T05:11:59;100448.75;;;2.60;66.19
10700;BME280;5401;41.986;21.452;2023-02-13T05:14:26;100449.47;;;2.62;66.38
10700;BME280;5401;41.986;21.452;2023-02-13T05:16:55;100448.44;;;2.65;67.00
10700;BME280;5401;41.986;21.452;2023-02-13T05:19:23;100449.03;;;2.68;67.04
10700;BME280;5401;41.986;21.452;2023-02-13T05:21:50;100448.94;;;2.70;66.60
10700;BME280;5401;41.986;21.452;2023-02-13T05:24:38;100443.75;;;2.68;66.50
10700;BME280;5401;41.986;21.452;2023-02-13T05:27:05;100448.94;;;2.70;66.32
10700;BME280;5401;41.986;21.452;2023-02-13T05:29:33;100452.31;;;2.72;66.91
10700;BME280;5401;41.986;21.452;2023-02-13T05:32:02;100446.06;;;2.73;66.41
10700;BME280;5401;41.986;21.452;2023-02-13T05:34:30;100453.03;;;2.74;66.30
10700;BME280;5401;41.986;21.452;2023-02-13T05:36:57;100445.22;;;2.72;66.42
10700;BME280;5401;41.986;21.452;2023-02-13T05:39:25;100450.38;;;2.74;66.91
10700;BME280;5401;41.986;21.452;2023-02-13T05:41:53;100450.28;;;2.75;66.26
10700;BME280;5401;41.986;21.452;2023-02-13T05:44:20;100447.78;;;2.84;66.90
10700;BME280;5401;41.986;21.452;2023-02-13T05:46:48;100455.63;;;2.97;66.71
10700;BME280;5401;41.986;21.452;2023-02-13T05:49:17;100458.81;;;3.13;66.08
10700;BME280;5401;41.986;21.452;2023-02-13T05:51:44;100460.56;;;3.24;66.47
10700;BME280;5401;41.986;21.452;2023-02-13T05:54:12;100453.13;;;3.40;65.99
10700;BME280;5401;41.986;21.452;2023-02-13T05:56:40;100459.41;;;3.61;66.19
10700;BME280;5401;41.986;21.452;2023-02-13T05:59:07;100458.72;;;3.81;65.37
10700;BME280;5401;41.986;21.452;2023-02-13T06:01:35;100464.25;;;3.89;64.96
10700;BME280;5401;41.986;21.452;2023-02-13T06:04:03;100470.66;;;3.97;65.25
10700;BME280;5401;41.986;21.452;2023-02-13T06:06:32;100469.78;;;4.07;65.34
10700;BME280;5401;41.986;21.452;2023-02-13T06:09:00;100460.88;;;4.19;64.36
10700;BME280;5401;41.986;21.452;2023-02-13T06:11:27;100467.09;;;4.40;64.24
10700;BME280;5401;41.986;21.452;2023-02-13T06:13:55;100470.16;;;4.77;64.44
10700;BME280;5401;41.986;21.452;2023-02-13T06:16:22;100468.19;;;5.21;64.55
10700;BME280;5401;41.986;21.452;2023-02-13T06:18:50;100467.00;;;5.55;63.19
10700;BME280;5401;41.986;21.452;2023-02-13T06:21:17;100463.97;;;5.79;62.76
10700;BME280;5401;41.986;21.452;2023-02-13T06:23:46;100471.81;;;6.10;62.98
10700;BME280;5401;41.986;21.452;2023-02-13T06:26:14;100471.94;;;6.48;62.12
10700;BME280;5401;41.986;21.452;2023-02-13T06:28:41;100470.34;;;6.94;61.57
10700;BME280;5401;41.986;21.452;2023-02-13T06:31:08;100477.38;;;7.32;61.01
10700;BME280;5401;41.986;21.452;2023-02-13T06:33:36;100477.34;;;7.70;60.50
10700;BME280;5401;41.986;21.452;2023-02-13T06:36:04;100477.25;;;7.98;59.68
10700;BME280;5401;41.986;21.452;2023-02-13T06:38:31;100473.72;;;8.16;58.91
10700;BME280;5401;41.986;21.452;2023-02-13T06:41:00;100479.75;;;8.45;59.13
10700;BME280;5401;41.986;21.452;2023-02-13T06:43:28;100485.78;;;8.73;57.76
10700;BME280;5401;41.986;21.452;2023-02-13T06:45:56;100492.28;;;8.88;58.27
10700;BME280;5401;41.986;21.452;2023-02-13T06:48:24;100500.47;;;9.38;57.27
10700;BME280;5401;41.986;21.452;2023-02-13T06:50:51;100489.66;;;9.82;56.69
10700;BME280;5401;41.986;21.452;2023-02-13T06:53:19;100477.63;;;10.03;56.60
10700;BME280;5401;41.986;21.452;2023-02-13T06:55:50;100484.00;;;10.35;55.32
10700;BME280;5401;41.986;21.452;2023-02-13T06:58:20;100490.13;;;10.53;55.57
10700;BME280;5401;41.986;21.452;2023-02-13T07:00:48;100483.31;;;10.74;54.95
10700;BME280;5401;41.986;21.452;2023-02-13T07:03:15;100487.72;;;10.83;54.68
10700;BME280;5401;41.986;21.452;2023-02-13T07:05:43;100486.41;;;10.95;54.54
10700;BME280;5401;41.986;21.452;2023-02-13T07:08:12;100499.38;;;11.15;54.38
10700;BME280;5401;41.986;21.452;2023-02-13T07:10:40;100489.63;;;11.14;54.38
10700;BME280;5401;41.986;21.452;2023-02-13T07:13:08;100489.28;;;11.02;54.43
10700;BME280;5401;41.986;21.452;2023-02-13T07:15:38;100492.94;;;11.01;54.57
10700;BME280;5401;41.986;21.452;2023-02-13T07:18:06;100495.59;;;10.85;54.45
10700;BME280;5401;41.986;21.452;2023-02-13T07:20:33;100482.53;;;10.90;54.84
10700;BME280;5401;41.986;21.452;2023-02-13T07:23:03;100498.19;;;11.18;54.95
10700;BME280;5401;41.986;21.452;2023-02-13T07:25:31;100499.06;;;11.34;54.60
10700;BME280;5401;41.986;21.452;2023-02-13T07:28:00;100495.16;;;11.21;54.86
10700;BME280;5401;41.986;21.452;2023-02-13T07:30:29;100498.16;;;11.02;54.90
10700;BME280;5401;41.986;21.452;2023-02-13T07:33:02;100495.25;;;10.88;55.21
10700;BME280;5401;41.986;21.452;2023-02-13T07:35:30;100487.91;;;10.90;55.54
10700;BME280;5401;41.986;21.452;2023-02-13T07:37:58;100490.75;;;10.88;55.24
10700;BME280;5401;41.986;21.452;2023-02-13T07:40:26;100481.53;;;10.83;55.50
10700;BME280;5401;41.986;21.452;2023-02-13T07:42:53;100484.00;;;10.76;55.55
10700;BME280;5401;41.986;21.452;2023-02-13T07:45:21;100483.13;;;10.68;55.42
10700;BME280;5401;41.986;21.452;2023-02-13T07:47:49;100484.59;;;10.55;55.55
10700;BME280;5401;41.986;21.452;2023-02-13T07:50:18;100492.38;;;10.32;55.15
10700;BME280;5401;41.986;21.452;2023-02-13T07:52:52;100482.09;;;10.20;55.72
10700;BME280;5401;41.986;21.452;2023-02-13T07:55:20;100476.69;;;10.12;55.77
10700;BME280;5401;41.986;21.452;2023-02-13T07:57:48;100485.59;;;10.21;55.82
10700;BME280;5401;41.986;21.452;2023-02-13T08:00:16;100488.38;;;10.36;55.96
10700;BME280;5401;41.986;21.452;2023-02-13T08:02:44;100496.44;;;10.44;55.08
10700;BME280;5401;41.986;21.452;2023-02-13T08:05:12;100486.81;;;10.26;55.72
10700;BME280;5401;41.986;21.452;2023-02-13T08:07:41;100488.97;;;10.23;55.69
10700;BME280;5401;41.986;21.452;2023-02-13T08:10:11;100490.19;;;10.36;55.34
10700;BME280;5401;41.986;21.452;2023-02-13T08:12:57;100477.97;;;10.33;54.95
10700;BME280;5401;41.986;21.452;2023-02-13T08:15:24;100490.16;;;10.28;55.51
10700;BME280;5401;41.986;21.452;2023-02-13T08:17:52;100496.06;;;10.39;54.87
10700;BME280;5401;41.986;21.452;2023-02-13T08:20:20;100483.44;;;10.57;55.26
10700;BME280;5401;41.986;21.452;2023-02-13T08:22:50;100486.16;;;10.65;54.69
10700;BME280;5401;41.986;21.452;2023-02-13T08:25:18;100491.69;;;10.71;54.73
10700;BME280;5401;41.986;21.452;2023-02-13T08:27:45;100497.88;;;10.72;54.23
10700;BME280;5401;41.986;21.452;2023-02-13T08:30:14;100490.69;;;10.65;54.43
10700;BME280;5401;41.986;21.452;2023-02-13T08:32:41;100480.97;;;10.71;54.34
10700;BME280;5401;41.986;21.452;2023-02-13T08:35:09;100483.22;;;10.92;54.08
10700;BME280;5401;41.986;21.452;2023-02-13T08:37:36;100475.81;;;10.86;54.22
10700;BME280;5401;41.986;21.452;2023-02-13T08:40:06;100476.84;;;11.01;54.28
10700;BME280;5401;41.986;21.452;2023-02-13T08:42:35;100479.44;;;11.18;53.79
10700;BME280;5401;41.986;21.452;2023-02-13T08:45:03;100479.75;;;11.23;53.74
10700;BME280;5401;41.986;21.452;2023-02-13T08:47:31;100492.19;;;11.39;53.76
10700;BME280;5401;41.986;21.452;2023-02-13T08:49:58;100483.03;;;11.66;53.33
10700;BME280;5401;41.986;21.452;2023-02-13T08:52:26;100484.69;;;11.59;53.33
10700;BME280;5401;41.986;21.452;2023-02-13T08:54:54;100479.66;;;11.64;52.85
10700;BME280;5401;41.986;21.452;2023-02-13T08:57:23;100474.78;;;11.67;53.04
10700;BME280;5401;41.986;21.452;2023-02-13T08:59:50;100483.84;;;11.74;52.61
10700;BME280;5401;41.986;21.452;2023-02-13T09:02:18;100484.84;;;11.65;52.38
10700;BME280;5401;41.986;21.452;2023-02-13T09:04:45;100479.16;;;11.60;52.52
10700;BME280;5401;41.986;21.452;2023-02-13T09:07:13;100473.63;;;11.77;52.62
10700;BME280;5401;41.986;21.452;2023-02-13T09:09:40;100457.84;;;11.90;51.88
10700;BME280;5401;41.986;21.452;2023-02-13T09:12:08;100478.91;;;12.25;52.38
10700;BME280;5401;41.986;21.452;2023-02-13T09:14:37;100474.78;;;12.52;51.58
10700;BME280;5401;41.986;21.452;2023-02-13T09:17:05;100481.06;;;12.75;52.07
10700;BME280;5401;41.986;21.452;2023-02-13T09:19:32;100477.03;;;12.87;50.39
10700;BME280;5401;41.986;21.452;2023-02-13T09:22:00;100462.09;;;12.77;51.43
10700;BME280;5401;41.986;21.452;2023-02-13T09:24:27;100467.25;;;12.86;50.65
10700;BME280;5401;41.986;21.452;2023-02-13T09:26:55;100468.59;;;12.90;51.01
10700;BME280;5401;41.986;21.452;2023-02-13T09:29:23;100460.56;;;12.82;50.68
10700;BME280;5401;41.986;21.452;2023-02-13T09:31:51;100460.03;;;12.86;49.88
10700;BME280;5401;41.986;21.452;2023-02-13T09:34:19;100439.91;;;12.83;50.59
10700;BME280;5401;41.986;21.452;2023-02-13T09:36:50;100449.47;;;13.15;49.56
10700;BME280;5401;41.986;21.452;2023-02-13T09:39:18;100450.19;;;13.31;49.56
10700;BME280;5401;41.986;21.452;2023-02-13T09:41:48;100441.41;;;13.37;49.57
10700;BME280;5401;41.986;21.452;2023-02-13T09:44:19;100442.63;;;13.49;49.43
10700;BME280;5401;41.986;21.452;2023-02-13T09:47:04;100449.25;;;13.39;49.60
10700;BME280;5401;41.986;21.452;2023-02-13T09:49:39;100442.88;;;13.40;49.21
10700;BME280;5401;41.986;21.452;2023-02-13T09:52:08;100444.13;;;13.52;48.47
10700;BME280;5401;41.986;21.452;2023-02-13T09:54:37;100433.09;;;13.61;48.15
10700;BME280;5401;41.986;21.452;2023-02-13T09:57:11;100432.44;;;13.59;48.20
10700;BME280;5401;41.986;21.452;2023-02-13T09:59:56;100425.25;;;13.37;48.33
10700;BME280;5401;41.986;21.452;2023-02-13T10:02:49;100431.47;;;13.38;48.89
10700;BME280;5401;41.986;21.452;2023-02-13T10:05:36;100435.41;;;13.27;48.59
10700;BME280;5401;41.986;21.452;2023-02-13T10:08:12;100420.31;;;13.18;49.25
10700;BME280;5401;41.986;21.452;2023-02-13T10:10:50;100426.78;;;13.10;49.13
10700;BME280;5401;41.986;21.452;2023-02-13T10:13:31;100409.50;;;13.04;48.03
10700;BME280;5401;41.986;21.452;2023-02-13T10:16:07;100403.13;;;13.27;49.02
10700;BME280;5401;41.986;21.452;2023-02-13T10:18:44;100398.84;;;13.55;47.44
10700;BME280;5401;41.986;21.452;2023-02-13T10:21:15;100395.44;;;13.89;47.10
10700;BME280;5401;41.986;21.452;2023-02-13T10:23:50;100389.66;;;14.15;46.95
10700;BME280;5401;41.986;21.452;2023-02-13T10:26:23;100381.97;;;14.26;47.13
10700;BME280;5401;41.986;21.452;2023-02-13T10:29:13;100382.75;;;14.55;46.54
10700;BME280;5401;41.986;21.452;2023-02-13T10:32:01;100385.31;;;14.77;46.39
10700;BME280;5401;41.986;21.452;2023-02-13T10:34:36;100375.53;;;14.76;45.80
10700;BME280;5401;41.986;21.452;2023-02-13T10:37:12;100377.44;;;14.62;46.43
10700;BME280;5401;41.986;21.452;2023-02-13T10:39:42;100366.22;;;14.44;46.43
10700;BME280;5401;41.986;21.452;2023-02-13T10:42:19;100369.19;;;14.49;45.75
10700;BME280;5401;41.986;21.452;2023-02-13T10:45:04;100352.75;;;14.44;45.98
10700;BME280;5401;41.986;21.452;2023-02-13T10:47:53;100339.91;;;14.46;46.19
10700;BME280;5401;41.986;21.452;2023-02-13T10:50:29;100323.38;;;14.49;45.26
10700;BME280;5401;41.986;21.452;2023-02-13T10:53:10;100335.97;;;14.63;45.42
10700;BME280;5401;41.986;21.452;2023-02-13T10:55:59;100337.94;;;14.05;45.35
10700;BME280;5401;41.986;21.452;2023-02-13T10:58:41;100326.56;;;13.95;46.16
10700;BME280;5401;41.986;21.452;2023-02-13T11:01:17;100340.03;;;13.81;45.28
10700;BME280;5401;41.986;21.452;2023-02-13T11:03:48;100323.75;;;13.46;45.06
10700;BME280;5401;41.986;21.452;2023-02-13T11:06:27;100311.31;;;13.45;45.91
10700;BME280;5401;41.986;21.452;2023-02-13T11:08:56;100325.81;;;13.58;45.80
10700;BME280;5401;41.986;21.452;2023-02-13T11:11:30;100323.84;;;13.52;45.82
10700;BME280;5401;41.986;21.452;2023-02-13T11:14:08;100315.22;;;13.56;45.16
10700;BME280;5401;41.986;21.452;2023-02-13T11:16:39;100314.78;;;13.67;46.20
10700;BME280;5401;41.986;21.452;2023-02-13T11:19:23;100297.50;;;13.76;45.78
10700;BME280;5401;41.986;21.452;2023-02-13T11:21:57;100309.19;;;13.97;45.10
10700;BME280;5401;41.986;21.452;2023-02-13T11:24:26;100303.75;;;14.05;45.09
10700;BME280;5401;41.986;21.452;2023-02-13T11:26:58;100294.06;;;13.96;45.31
10700;BME280;5401;41.986;21.452;2023-02-13T11:29:28;100292.69;;;13.57;44.39
10700;BME280;5401;41.986;21.452;2023-02-13T11:34:48;100288.69;;;13.54;44.88
10700;BME280;5401;41.986;21.452;2023-02-13T11:37:24;100282.41;;;13.24;44.66
10700;BME280;5401;41.986;21.452;2023-02-13T11:39:53;100272.63;;;12.73;45.09
10700;BME280;5401;41.986;21.452;2023-02-13T11:42:28;100277.75;;;12.82;46.05
10700;BME280;5401;41.986;21.452;2023-02-13T11:44:59;100265.63;;;12.86;44.88
10700;BME280;5401;41.986;21.452;2023-02-13T11:47:37;100268.66;;;13.05;44.58
10700;BME280;5401;41.986;21.452;2023-02-13T11:50:20;100263.50;;;13.32;45.71
10700;BME280;5401;41.986;21.452;2023-02-13T11:52:56;100257.50;;;13.59;45.29
10700;BME280;5401;41.986;21.452;2023-02-13T11:55:27;100253.22;;;13.64;44.19
10700;BME280;5401;41.986;21.452;2023-02-13T11:57:56;100245.16;;;13.64;44.02
10700;BME280;5401;41.986;21.452;2023-02-13T12:00:28;100253.31;;;13.71;44.40
10700;BME280;5401;41.986;21.452;2023-02-13T12:02:57;100239.13;;;13.48;43.65
10700;BME280;5401;41.986;21.452;2023-02-13T12:05:26;100230.94;;;13.13;44.42
10700;BME280;5401;41.986;21.452;2023-02-13T12:07:59;100230.72;;;13.00;44.78
10700;BME280;5401;41.986;21.452;2023-02-13T12:10:28;100229.16;;;13.06;44.71
10700;BME280;5401;41.986;21.452;2023-02-13T12:12:57;100220.06;;;13.07;44.88
10700;BME280;5401;41.986;21.452;2023-02-13T12:15:31;100223.06;;;13.26;43.87
10700;BME280;5401;41.986;21.452;2023-02-13T12:18:04;100219.00;;;13.30;44.66
10700;BME280;5401;41.986;21.452;2023-02-13T12:20:47;100217.22;;;13.37;45.00
10700;BME280;5401;41.986;21.452;2023-02-13T12:23:29;100221.41;;;13.39;43.91
10700;BME280;5401;41.986;21.452;2023-02-13T12:29:06;100207.00;;;13.32;43.71
10700;BME280;5401;41.986;21.452;2023-02-13T12:31:51;100198.47;;;13.29;43.46
10700;BME280;5401;41.986;21.452;2023-02-13T12:37:36;100188.19;;;13.32;43.88
10700;BME280;5401;41.986;21.452;2023-02-13T12:40:22;100188.84;;;13.34;44.14
10700;BME280;5401;41.986;21.452;2023-02-13T12:43:11;100189.13;;;13.25;43.79
10700;BME280;5401;41.986;21.452;2023-02-13T12:45:47;100171.78;;;12.99;44.36
10700;BME280;5401;41.986;21.452;2023-02-13T12:48:29;100161.03;;;12.77;43.96
10700;BME280;5401;41.986;21.452;2023-02-13T12:51:14;100173.78;;;12.83;44.43
10700;BME280;5401;41.986;21.452;2023-02-13T12:54:09;100162.66;;;12.85;44.35
10700;BME280;5401;41.986;21.452;2023-02-13T12:57:06;100141.97;;;12.86;44.25
10700;BME280;5401;41.986;21.452;2023-02-13T12:59:50;100155.25;;;13.02;43.95
10700;BME280;5401;41.986;21.452;2023-02-13T13:02:50;100147.00;;;13.03;43.69
10700;BME280;5401;41.986;21.452;2023-02-13T13:05:29;100134.84;;;12.79;44.38
10700;BME280;5401;41.986;21.452;2023-02-13T13:08:21;100138.50;;;12.78;43.42
10700;BME280;5401;41.986;21.452;2023-02-13T13:11:02;100130.41;;;12.85;44.68
10700;BME280;5401;41.986;21.452;2023-02-13T13:13:44;100126.06;;;12.99;43.48
10700;BME280;5401;41.986;21.452;2023-02-13T13:16:20;100104.16;;;12.87;43.35
10700;BME280;5401;41.986;21.452;2023-02-13T13:19:00;100120.22;;;13.10;43.94
10700;BME280;5401;41.986;21.452;2023-02-13T13:21:35;100112.53;;;13.21;43.70
10700;BME280;5401;41.986;21.452;2023-02-13T13:24:09;100108.13;;;13.20;43.31
10700;BME280;5401;41.986;21.452;2023-02-13T13:26:41;100115.00;;;13.22;43.24
10700;BME280;5401;41.986;21.452;2023-02-13T13:29:18;100115.53;;;13.32;43.71
10700;BME280;5401;41.986;21.452;2023-02-13T13:31:51;100105.94;;;13.23;43.17
10700;BME280;5401;41.986;21.452;2023-02-13T13:34:23;100111.47;;;13.22;42.51
10700;BME280;5401;41.986;21.452;2023-02-13T13:36:57;100105.81;;;13.31;42.63
10700;BME280;5401;41.986;21.452;2023-02-13T13:39:34;100098.94;;;13.43;42.98